sensor_id;sensor_type;location;lat;lon;timestamp;P1;durP1;ratioP1;P2;durP2;ratioP2
82873;SDS011;72647;51.622;7.540;2024-01-25T00:00:35;20.60;;;3.25;;
82873;SDS011;72647;51.622;7.540;2024-01-25T00:02:36;20.17;;;3.67;;
82873;SDS011;72647;51.622;7.540;2024-01-25T00:04:36;22.63;;;3.90;;
82873;SDS011;72647;51.622;7.540;2024-01-25T00:06:36;28.60;;;5.00;;
82873;SDS011;72647;51.622;7.540;2024-01-25T00:08:36;23.60;;;3.30;;
82873;SDS011;72647;51.622;7.540;2024-01-25T00:10:36;27.50;;;3.90;;
82873;SDS011;72647;51.622;7.540;2024-01-25T00:12:36;22.37;;;4.10;;
82873;SDS011;72647;51.622;7.540;2024-01-25T00:14:37;26.47;;;3.80;;
82873;SDS011;72647;51.622;7.540;2024-01-25T00:16:40;28.40;;;4.00;;
82873;SDS011;72647;51.622;7.540;2024-01-25T00:18:40;16.63;;;3.55;;
82873;SDS011;72647;51.622;7.540;2024-01-25T00:20:40;17.40;;;4.03;;
82873;SDS011;72647;51.622;7.540;2024-01-25T00:22:40;20.17;;;4.00;;
82873;SDS011;72647;51.622;7.540;2024-01-25T00:24:41;24.45;;;4.53;;
82873;SDS011;72647;51.622;7.540;2024-01-25T00:26:41;26.57;;;4.40;;
82873;SDS011;72647;51.622;7.540;2024-01-25T00:28:42;20.00;;;3.93;;
82873;SDS011;72647;51.622;7.540;2024-01-25T00:30:42;25.20;;;4.45;;
82873;SDS011;72647;51.622;7.540;2024-01-25T00:32:42;21.57;;;3.97;;
82873;SDS011;72647;51.622;7.540;2024-01-25T00:34:43;23.05;;;3.97;;
82873;SDS011;72647;51.622;7.540;2024-01-25T00:36:43;29.23;;;3.85;;
82873;SDS011;72647;51.622;7.540;2024-01-25T00:38:43;23.85;;;4.30;;
82873;SDS011;72647;51.622;7.540;2024-01-25T00:40:44;19.40;;;3.78;;
82873;SDS011;72647;51.622;7.540;2024-01-25T00:42:45;19.27;;;3.28;;
82873;SDS011;72647;51.622;7.540;2024-01-25T00:44:49;18.75;;;3.03;;
82873;SDS011;72647;51.622;7.540;2024-01-25T00:46:49;20.48;;;3.88;;
82873;SDS011;72647;51.622;7.540;2024-01-25T00:48:51;22.88;;;4.05;;
82873;SDS011;72647;51.622;7.540;2024-01-25T00:50:51;20.08;;;3.42;;
82873;SDS011;72647;51.622;7.540;2024-01-25T00:52:51;18.55;;;4.15;;
82873;SDS011;72647;51.622;7.540;2024-01-25T00:54:52;20.33;;;3.95;;
82873;SDS011;72647;51.622;7.540;2024-01-25T00:56:52;16.50;;;3.40;;
82873;SDS011;72647;51.622;7.540;2024-01-25T00:58:52;26.48;;;4.57;;
82873;SDS011;72647;51.622;7.540;2024-01-25T01:00:53;23.63;;;3.95;;
82873;SDS011;72647;51.622;7.540;2024-01-25T01:02:53;15.80;;;3.53;;
82873;SDS011;72647;51.622;7.540;2024-01-25T01:04:53;24.08;;;3.80;;
82873;SDS011;72647;51.622;7.540;2024-01-25T01:06:54;21.90;;;4.25;;
82873;SDS011;72647;51.622;7.540;2024-01-25T01:08:54;19.53;;;3.87;;
82873;SDS011;72647;51.622;7.540;2024-01-25T01:10:54;20.48;;;3.78;;
82873;SDS011;72647;51.622;7.540;2024-01-25T01:12:54;18.93;;;3.07;;
82873;SDS011;72647;51.622;7.540;2024-01-25T01:14:54;24.30;;;3.83;;
82873;SDS011;72647;51.622;7.540;2024-01-25T01:16:55;21.65;;;3.58;;
82873;SDS011;72647;51.622;7.540;2024-01-25T01:18:55;24.27;;;4.17;;
82873;SDS011;72647;51.622;7.540;2024-01-25T01:20:55;26.87;;;4.27;;
82873;SDS011;72647;51.622;7.540;2024-01-25T01:22:55;23.07;;;2.93;;
82873;SDS011;72647;51.622;7.540;2024-01-25T01:24:56;19.13;;;2.97;;
82873;SDS011;72647;51.622;7.540;2024-01-25T01:26:56;15.50;;;3.20;;
82873;SDS011;72647;51.622;7.540;2024-01-25T01:28:56;28.07;;;3.93;;
82873;SDS011;72647;51.622;7.540;2024-01-25T01:30:56;24.13;;;3.83;;
82873;SDS011;72647;51.622;7.540;2024-01-25T01:32:56;13.77;;;3.07;;
82873;SDS011;72647;51.622;7.540;2024-01-25T01:35:00;25.53;;;4.17;;
82873;SDS011;72647;51.622;7.540;2024-01-25T01:37:00;19.05;;;4.25;;
82873;SDS011;72647;51.622;7.540;2024-01-25T01:39:00;16.07;;;2.77;;
82873;SDS011;72647;51.622;7.540;2024-01-25T01:41:00;24.97;;;4.10;;
82873;SDS011;72647;51.622;7.540;2024-01-25T01:43:01;19.57;;;4.23;;
82873;SDS011;72647;51.622;7.540;2024-01-25T01:45:01;16.00;;;3.05;;
82873;SDS011;72647;51.622;7.540;2024-01-25T01:47:01;20.17;;;3.53;;
82873;SDS011;72647;51.622;7.540;2024-01-25T01:49:02;20.20;;;3.43;;
82873;SDS011;72647;51.622;7.540;2024-01-25T01:51:02;20.77;;;4.05;;
82873;SDS011;72647;51.622;7.540;2024-01-25T01:53:02;17.98;;;3.40;;
82873;SDS011;72647;51.622;7.540;2024-01-25T01:55:04;18.15;;;3.08;;
82873;SDS011;72647;51.622;7.540;2024-01-25T01:57:04;17.45;;;2.63;;
82873;SDS011;72647;51.622;7.540;2024-01-25T01:59:05;23.85;;;3.30;;
82873;SDS011;72647;51.622;7.540;2024-01-25T02:01:08;14.77;;;3.00;;
82873;SDS011;72647;51.622;7.540;2024-01-25T02:03:09;23.47;;;2.77;;
82873;SDS011;72647;51.622;7.540;2024-01-25T02:05:09;25.02;;;3.45;;
82873;SDS011;72647;51.622;7.540;2024-01-25T02:07:11;26.67;;;3.33;;
82873;SDS011;72647;51.622;7.540;2024-01-25T02:09:11;16.75;;;2.40;;
82873;SDS011;72647;51.622;7.540;2024-01-25T02:11:12;22.17;;;3.13;;
82873;SDS011;72647;51.622;7.540;2024-01-25T02:13:12;16.92;;;2.90;;
82873;SDS011;72647;51.622;7.540;2024-01-25T02:15:12;18.90;;;2.87;;
82873;SDS011;72647;51.622;7.540;2024-01-25T02:17:12;18.77;;;3.10;;
82873;SDS011;72647;51.622;7.540;2024-01-25T02:19:13;20.87;;;3.10;;
82873;SDS011;72647;51.622;7.540;2024-01-25T02:21:13;18.92;;;3.30;;
82873;SDS011;72647;51.622;7.540;2024-01-25T02:23:13;19.90;;;3.30;;
82873;SDS011;72647;51.622;7.540;2024-01-25T02:25:13;16.47;;;3.00;;
82873;SDS011;72647;51.622;7.540;2024-01-25T02:27:14;17.37;;;3.47;;
82873;SDS011;72647;51.622;7.540;2024-01-25T02:29:14;14.70;;;3.20;;
82873;SDS011;72647;51.622;7.540;2024-01-25T02:31:14;20.13;;;3.50;;
82873;SDS011;72647;51.622;7.540;2024-01-25T02:33:14;26.83;;;3.83;;
82873;SDS011;72647;51.622;7.540;2024-01-25T02:35:14;21.13;;;3.67;;
82873;SDS011;72647;51.622;7.540;2024-01-25T02:37:15;19.60;;;3.80;;
82873;SDS011;72647;51.622;7.540;2024-01-25T02:39:15;19.25;;;2.67;;
82873;SDS011;72647;51.622;7.540;2024-01-25T02:41:16;17.13;;;3.10;;
82873;SDS011;72647;51.622;7.540;2024-01-25T02:43:16;19.87;;;4.10;;
82873;SDS011;72647;51.622;7.540;2024-01-25T02:45:16;20.80;;;3.67;;
82873;SDS011;72647;51.622;7.540;2024-01-25T02:47:16;17.93;;;2.97;;
82873;SDS011;72647;51.622;7.540;2024-01-25T02:49:16;22.33;;;3.17;;
82873;SDS011;72647;51.622;7.540;2024-01-25T02:51:17;21.83;;;3.07;;
82873;SDS011;72647;51.622;7.540;2024-01-25T02:53:17;21.90;;;3.22;;
82873;SDS011;72647;51.622;7.540;2024-01-25T02:55:20;21.10;;;3.63;;
82873;SDS011;72647;51.622;7.540;2024-01-25T02:57:20;12.13;;;2.60;;
82873;SDS011;72647;51.622;7.540;2024-01-25T02:59:20;18.10;;;2.93;;
82873;SDS011;72647;51.622;7.540;2024-01-25T03:01:21;16.90;;;3.60;;
82873;SDS011;72647;51.622;7.540;2024-01-25T03:03:21;16.10;;;3.35;;
82873;SDS011;72647;51.622;7.540;2024-01-25T03:05:23;31.52;;;4.90;;
82873;SDS011;72647;51.622;7.540;2024-01-25T03:07:23;14.20;;;2.57;;
82873;SDS011;72647;51.622;7.540;2024-01-25T03:09:23;17.03;;;3.63;;
82873;SDS011;72647;51.622;7.540;2024-01-25T03:11:24;19.03;;;3.03;;
82873;SDS011;72647;51.622;7.540;2024-01-25T03:13:24;21.13;;;3.23;;
82873;SDS011;72647;51.622;7.540;2024-01-25T03:15:24;22.37;;;3.47;;
82873;SDS011;72647;51.622;7.540;2024-01-25T03:17:24;17.83;;;3.50;;
82873;SDS011;72647;51.622;7.540;2024-01-25T03:19:26;17.95;;;4.10;;
82873;SDS011;72647;51.622;7.540;2024-01-25T03:21:26;16.25;;;2.70;;
82873;SDS011;72647;51.622;7.540;2024-01-25T03:23:26;26.37;;;3.67;;
82873;SDS011;72647;51.622;7.540;2024-01-25T03:25:27;17.33;;;3.00;;
82873;SDS011;72647;51.622;7.540;2024-01-25T03:27:27;18.20;;;2.50;;
82873;SDS011;72647;51.622;7.540;2024-01-25T03:29:27;21.10;;;4.57;;
82873;SDS011;72647;51.622;7.540;2024-01-25T03:31:27;21.63;;;3.83;;
82873;SDS011;72647;51.622;7.540;2024-01-25T03:33:27;23.67;;;4.00;;
82873;SDS011;72647;51.622;7.540;2024-01-25T03:35:28;18.63;;;3.47;;
82873;SDS011;72647;51.622;7.540;2024-01-25T03:37:29;19.40;;;3.83;;
82873;SDS011;72647;51.622;7.540;2024-01-25T03:39:29;18.03;;;3.50;;
82873;SDS011;72647;51.622;7.540;2024-01-25T03:41:29;20.13;;;3.70;;
82873;SDS011;72647;51.622;7.540;2024-01-25T03:43:29;28.53;;;4.43;;
82873;SDS011;72647;51.622;7.540;2024-01-25T03:45:30;22.33;;;3.88;;
82873;SDS011;72647;51.622;7.540;2024-01-25T03:47:32;20.42;;;4.30;;
82873;SDS011;72647;51.622;7.540;2024-01-25T03:49:32;17.10;;;3.30;;
82873;SDS011;72647;51.622;7.540;2024-01-25T03:51:32;27.13;;;4.30;;
82873;SDS011;72647;51.622;7.540;2024-01-25T03:53:33;21.45;;;4.00;;
82873;SDS011;72647;51.622;7.540;2024-01-25T03:55:33;25.73;;;3.20;;
82873;SDS011;72647;51.622;7.540;2024-01-25T03:57:33;23.10;;;4.00;;
82873;SDS011;72647;51.622;7.540;2024-01-25T03:59:33;24.37;;;4.53;;
82873;SDS011;72647;51.622;7.540;2024-01-25T04:01:34;24.27;;;4.60;;
82873;SDS011;72647;51.622;7.540;2024-01-25T04:03:34;20.43;;;4.03;;
82873;SDS011;72647;51.622;7.540;2024-01-25T04:05:34;20.83;;;3.45;;
82873;SDS011;72647;51.622;7.540;2024-01-25T04:07:35;19.50;;;3.47;;
82873;SDS011;72647;51.622;7.540;2024-01-25T04:09:35;27.75;;;4.18;;
82873;SDS011;72647;51.622;7.540;2024-01-25T04:11:36;16.17;;;3.50;;
82873;SDS011;72647;51.622;7.540;2024-01-25T04:13:36;21.65;;;3.50;;
82873;SDS011;72647;51.622;7.540;2024-01-25T04:15:36;17.83;;;3.37;;
82873;SDS011;72647;51.622;7.540;2024-01-25T04:17:36;23.47;;;3.47;;
82873;SDS011;72647;51.622;7.540;2024-01-25T04:19:36;23.40;;;5.03;;
82873;SDS011;72647;51.622;7.540;2024-01-25T04:21:37;22.90;;;3.03;;
82873;SDS011;72647;51.622;7.540;2024-01-25T04:23:37;18.70;;;3.00;;
82873;SDS011;72647;51.622;7.540;2024-01-25T04:25:37;21.47;;;3.57;;
82873;SDS011;72647;51.622;7.540;2024-01-25T04:27:40;21.13;;;3.47;;
82873;SDS011;72647;51.622;7.540;2024-01-25T04:29:40;18.85;;;4.03;;
82873;SDS011;72647;51.622;7.540;2024-01-25T04:33:42;19.50;;;3.45;;
82873;SDS011;72647;51.622;7.540;2024-01-25T04:35:43;18.73;;;3.40;;
82873;SDS011;72647;51.622;7.540;2024-01-25T04:37:43;23.38;;;3.08;;
82873;SDS011;72647;51.622;7.540;2024-01-25T04:39:43;23.50;;;3.57;;
82873;SDS011;72647;51.622;7.540;2024-01-25T04:41:43;23.13;;;3.40;;
82873;SDS011;72647;51.622;7.540;2024-01-25T04:43:45;20.42;;;3.55;;
82873;SDS011;72647;51.622;7.540;2024-01-25T04:45:46;20.88;;;3.33;;
82873;SDS011;72647;51.622;7.540;2024-01-25T04:47:46;14.03;;;2.90;;
82873;SDS011;72647;51.622;7.540;2024-01-25T04:49:46;20.67;;;4.57;;
82873;SDS011;72647;51.622;7.540;2024-01-25T04:51:46;23.47;;;3.40;;
82873;SDS011;72647;51.622;7.540;2024-01-25T04:53:47;27.00;;;4.10;;
82873;SDS011;72647;51.622;7.540;2024-01-25T04:55:47;32.27;;;3.20;;
82873;SDS011;72647;51.622;7.540;2024-01-25T04:57:47;24.63;;;3.20;;
82873;SDS011;72647;51.622;7.540;2024-01-25T04:59:49;21.17;;;3.45;;
82873;SDS011;72647;51.622;7.540;2024-01-25T05:01:50;36.37;;;3.90;;
82873;SDS011;72647;51.622;7.540;2024-01-25T05:03:51;18.83;;;4.38;;
82873;SDS011;72647;51.622;7.540;2024-01-25T05:05:51;16.30;;;3.03;;
82873;SDS011;72647;51.622;7.540;2024-01-25T05:07:52;21.23;;;3.70;;
82873;SDS011;72647;51.622;7.540;2024-01-25T05:09:52;23.07;;;3.93;;
82873;SDS011;72647;51.622;7.540;2024-01-25T05:11:52;16.37;;;2.67;;
82873;SDS011;72647;51.622;7.540;2024-01-25T05:13:52;24.30;;;3.23;;
82873;SDS011;72647;51.622;7.540;2024-01-25T05:15:52;28.30;;;3.60;;
82873;SDS011;72647;51.622;7.540;2024-01-25T05:17:53;21.50;;;3.40;;
82873;SDS011;72647;51.622;7.540;2024-01-25T05:19:53;27.50;;;3.97;;
82873;SDS011;72647;51.622;7.540;2024-01-25T05:21:53;27.53;;;3.53;;
82873;SDS011;72647;51.622;7.540;2024-01-25T05:23:53;27.15;;;4.35;;
82873;SDS011;72647;51.622;7.540;2024-01-25T05:25:54;21.13;;;3.28;;
82873;SDS011;72647;51.622;7.540;2024-01-25T05:27:54;23.93;;;4.60;;
82873;SDS011;72647;51.622;7.540;2024-01-25T05:29:55;22.00;;;2.83;;
82873;SDS011;72647;51.622;7.540;2024-01-25T05:31:55;23.80;;;3.73;;
82873;SDS011;72647;51.622;7.540;2024-01-25T05:33:56;17.25;;;3.35;;
82873;SDS011;72647;51.622;7.540;2024-01-25T05:35:56;24.10;;;4.13;;
82873;SDS011;72647;51.622;7.540;2024-01-25T05:37:56;29.65;;;4.40;;
82873;SDS011;72647;51.622;7.540;2024-01-25T05:39:56;23.67;;;3.97;;
82873;SDS011;72647;51.622;7.540;2024-01-25T05:41:56;24.27;;;3.70;;
82873;SDS011;72647;51.622;7.540;2024-01-25T05:43:57;19.90;;;3.70;;
82873;SDS011;72647;51.622;7.540;2024-01-25T05:45:57;30.00;;;4.03;;
82873;SDS011;72647;51.622;7.540;2024-01-25T05:47:58;46.08;;;5.40;;
82873;SDS011;72647;51.622;7.540;2024-01-25T05:49:58;28.90;;;4.22;;
82873;SDS011;72647;51.622;7.540;2024-01-25T05:51:58;18.60;;;3.80;;
82873;SDS011;72647;51.622;7.540;2024-01-25T05:53:59;24.37;;;3.97;;
82873;SDS011;72647;51.622;7.540;2024-01-25T05:55:59;22.67;;;2.90;;
82873;SDS011;72647;51.622;7.540;2024-01-25T05:57:59;21.87;;;5.13;;
82873;SDS011;72647;51.622;7.540;2024-01-25T05:59:59;23.87;;;3.77;;
82873;SDS011;72647;51.622;7.540;2024-01-25T06:01:59;19.40;;;3.73;;
82873;SDS011;72647;51.622;7.540;2024-01-25T06:04:00;23.57;;;3.60;;
82873;SDS011;72647;51.622;7.540;2024-01-25T06:06:00;19.30;;;3.10;;
82873;SDS011;72647;51.622;7.540;2024-01-25T06:08:00;23.13;;;3.60;;
82873;SDS011;72647;51.622;7.540;2024-01-25T06:10:00;29.03;;;4.33;;
82873;SDS011;72647;51.622;7.540;2024-01-25T06:12:00;17.93;;;3.30;;
82873;SDS011;72647;51.622;7.540;2024-01-25T06:14:01;24.40;;;4.72;;
82873;SDS011;72647;51.622;7.540;2024-01-25T06:16:01;20.20;;;4.27;;
82873;SDS011;72647;51.622;7.540;2024-01-25T06:18:01;18.43;;;3.60;;
82873;SDS011;72647;51.622;7.540;2024-01-25T06:20:03;23.27;;;4.18;;
82873;SDS011;72647;51.622;7.540;2024-01-25T06:22:04;22.63;;;4.15;;
82873;SDS011;72647;51.622;7.540;2024-01-25T06:24:05;27.23;;;3.77;;
82873;SDS011;72647;51.622;7.540;2024-01-25T06:26:05;32.33;;;4.95;;
82873;SDS011;72647;51.622;7.540;2024-01-25T06:28:05;32.67;;;5.10;;
82873;SDS011;72647;51.622;7.540;2024-01-25T06:30:06;26.53;;;3.80;;
82873;SDS011;72647;51.622;7.540;2024-01-25T06:32:06;22.60;;;3.95;;
82873;SDS011;72647;51.622;7.540;2024-01-25T06:34:06;30.42;;;4.45;;
82873;SDS011;72647;51.622;7.540;2024-01-25T06:36:07;30.27;;;4.18;;
82873;SDS011;72647;51.622;7.540;2024-01-25T06:38:07;22.67;;;4.80;;
82873;SDS011;72647;51.622;7.540;2024-01-25T06:40:07;24.10;;;4.60;;
82873;SDS011;72647;51.622;7.540;2024-01-25T06:42:07;25.60;;;4.45;;
82873;SDS011;72647;51.622;7.540;2024-01-25T06:44:08;25.10;;;4.85;;
82873;SDS011;72647;51.622;7.540;2024-01-25T06:46:08;30.45;;;4.82;;
82873;SDS011;72647;51.622;7.540;2024-01-25T06:48:09;30.20;;;5.07;;
82873;SDS011;72647;51.622;7.540;2024-01-25T06:50:09;30.92;;;5.20;;
82873;SDS011;72647;51.622;7.540;2024-01-25T06:52:09;31.10;;;5.53;;
82873;SDS011;72647;51.622;7.540;2024-01-25T06:54:09;30.73;;;5.10;;
82873;SDS011;72647;51.622;7.540;2024-01-25T06:56:10;25.17;;;5.50;;
82873;SDS011;72647;51.622;7.540;2024-01-25T06:58:10;29.07;;;5.07;;
82873;SDS011;72647;51.622;7.540;2024-01-25T07:00:10;21.93;;;5.17;;
82873;SDS011;72647;51.622;7.540;2024-01-25T07:02:12;28.92;;;5.40;;
82873;SDS011;72647;51.622;7.540;2024-01-25T07:04:13;25.93;;;5.13;;
82873;SDS011;72647;51.622;7.540;2024-01-25T07:06:13;25.63;;;5.20;;
82873;SDS011;72647;51.622;7.540;2024-01-25T07:08:13;36.30;;;5.90;;
82873;SDS011;72647;51.622;7.540;2024-01-25T07:10:13;25.57;;;4.87;;
82873;SDS011;72647;51.622;7.540;2024-01-25T07:12:14;32.85;;;5.70;;
82873;SDS011;72647;51.622;7.540;2024-01-25T07:14:14;33.10;;;6.33;;
82873;SDS011;72647;51.622;7.540;2024-01-25T07:16:14;21.43;;;5.50;;
82873;SDS011;72647;51.622;7.540;2024-01-25T07:18:15;29.97;;;5.17;;
82873;SDS011;72647;51.622;7.540;2024-01-25T07:20:15;28.50;;;5.57;;
82873;SDS011;72647;51.622;7.540;2024-01-25T07:22:15;38.33;;;5.73;;
82873;SDS011;72647;51.622;7.540;2024-01-25T07:24:18;26.45;;;5.40;;
82873;SDS011;72647;51.622;7.540;2024-01-25T07:26:19;27.90;;;5.30;;
82873;SDS011;72647;51.622;7.540;2024-01-25T07:28:19;27.30;;;4.90;;
82873;SDS011;72647;51.622;7.540;2024-01-25T07:30:19;24.58;;;4.95;;
82873;SDS011;72647;51.622;7.540;2024-01-25T07:32:20;27.73;;;5.03;;
82873;SDS011;72647;51.622;7.540;2024-01-25T07:34:20;26.42;;;4.72;;
82873;SDS011;72647;51.622;7.540;2024-01-25T07:36:20;37.27;;;6.90;;
82873;SDS011;72647;51.622;7.540;2024-01-25T07:38:20;32.40;;;9.27;;
82873;SDS011;72647;51.622;7.540;2024-01-25T07:40:21;27.13;;;5.93;;
82873;SDS011;72647;51.622;7.540;2024-01-25T07:42:21;29.80;;;4.80;;
82873;SDS011;72647;51.622;7.540;2024-01-25T07:44:21;21.60;;;4.97;;
82873;SDS011;72647;51.622;7.540;2024-01-25T07:46:21;23.97;;;4.67;;
82873;SDS011;72647;51.622;7.540;2024-01-25T07:48:23;25.60;;;5.15;;
82873;SDS011;72647;51.622;7.540;2024-01-25T07:50:24;23.73;;;5.67;;
82873;SDS011;72647;51.622;7.540;2024-01-25T07:52:24;24.23;;;5.67;;
82873;SDS011;72647;51.622;7.540;2024-01-25T07:54:24;25.87;;;5.23;;
82873;SDS011;72647;51.622;7.540;2024-01-25T07:56:24;28.55;;;5.47;;
82873;SDS011;72647;51.622;7.540;2024-01-25T07:58:25;26.37;;;5.80;;
82873;SDS011;72647;51.622;7.540;2024-01-25T08:00:25;31.20;;;5.10;;
82873;SDS011;72647;51.622;7.540;2024-01-25T08:02:25;24.57;;;5.57;;
82873;SDS011;72647;51.622;7.540;2024-01-25T08:04:25;20.07;;;4.97;;
82873;SDS011;72647;51.622;7.540;2024-01-25T08:06:25;30.90;;;5.93;;
82873;SDS011;72647;51.622;7.540;2024-01-25T08:08:29;33.03;;;5.43;;
82873;SDS011;72647;51.622;7.540;2024-01-25T08:10:29;25.67;;;4.77;;
82873;SDS011;72647;51.622;7.540;2024-01-25T08:12:29;20.77;;;4.90;;
82873;SDS011;72647;51.622;7.540;2024-01-25T08:14:29;23.20;;;5.03;;
82873;SDS011;72647;51.622;7.540;2024-01-25T08:16:29;23.47;;;4.80;;
82873;SDS011;72647;51.622;7.540;2024-01-25T08:18:30;26.13;;;5.93;;
82873;SDS011;72647;51.622;7.540;2024-01-25T08:20:30;36.40;;;7.03;;
82873;SDS011;72647;51.622;7.540;2024-01-25T08:22:31;23.63;;;5.10;;
82873;SDS011;72647;51.622;7.540;2024-01-25T08:24:31;30.83;;;6.70;;
82873;SDS011;72647;51.622;7.540;2024-01-25T08:26:31;23.73;;;4.50;;
82873;SDS011;72647;51.622;7.540;2024-01-25T08:28:31;25.03;;;5.00;;
82873;SDS011;72647;51.622;7.540;2024-01-25T08:30:32;23.87;;;4.97;;
82873;SDS011;72647;51.622;7.540;2024-01-25T08:32:32;21.85;;;4.80;;
82873;SDS011;72647;51.622;7.540;2024-01-25T08:34:32;22.50;;;5.03;;
82873;SDS011;72647;51.622;7.540;2024-01-25T08:36:33;23.70;;;4.63;;
82873;SDS011;72647;51.622;7.540;2024-01-25T08:38:33;31.23;;;7.03;;
82873;SDS011;72647;51.622;7.540;2024-01-25T08:40:33;26.57;;;5.70;;
82873;SDS011;72647;51.622;7.540;2024-01-25T08:42:33;26.80;;;5.40;;
82873;SDS011;72647;51.622;7.540;2024-01-25T08:44:34;29.50;;;6.43;;
82873;SDS011;72647;51.622;7.540;2024-01-25T08:46:34;32.50;;;5.37;;
82873;SDS011;72647;51.622;7.540;2024-01-25T08:48:34;25.27;;;6.13;;
82873;SDS011;72647;51.622;7.540;2024-01-25T08:50:35;21.33;;;5.10;;
82873;SDS011;72647;51.622;7.540;2024-01-25T08:52:36;28.83;;;5.97;;
82873;SDS011;72647;51.622;7.540;2024-01-25T08:54:36;28.30;;;5.60;;
82873;SDS011;72647;51.622;7.540;2024-01-25T08:56:37;20.05;;;5.60;;
82873;SDS011;72647;51.622;7.540;2024-01-25T08:58:37;19.97;;;5.77;;
82873;SDS011;72647;51.622;7.540;2024-01-25T09:00:37;24.17;;;5.87;;
82873;SDS011;72647;51.622;7.540;2024-01-25T09:02:38;29.43;;;5.70;;
82873;SDS011;72647;51.622;7.540;2024-01-25T09:04:38;26.10;;;6.00;;
82873;SDS011;72647;51.622;7.540;2024-01-25T09:06:40;25.92;;;5.63;;
82873;SDS011;72647;51.622;7.540;2024-01-25T09:08:40;34.58;;;4.68;;
82873;SDS011;72647;51.622;7.540;2024-01-25T09:10:41;24.77;;;5.93;;
82873;SDS011;72647;51.622;7.540;2024-01-25T09:12:41;22.88;;;5.97;;
82873;SDS011;72647;51.622;7.540;2024-01-25T09:14:43;30.80;;;5.53;;
82873;SDS011;72647;51.622;7.540;2024-01-25T09:16:43;30.90;;;5.93;;
82873;SDS011;72647;51.622;7.540;2024-01-25T09:18:43;22.70;;;5.63;;
82873;SDS011;72647;51.622;7.540;2024-01-25T09:20:43;23.30;;;5.73;;
82873;SDS011;72647;51.622;7.540;2024-01-25T09:22:47;24.92;;;5.35;;
82873;SDS011;72647;51.622;7.540;2024-01-25T09:24:47;26.73;;;5.50;;
82873;SDS011;72647;51.622;7.540;2024-01-25T09:26:48;19.23;;;5.67;;
82873;SDS011;72647;51.622;7.540;2024-01-25T09:28:48;21.53;;;5.20;;
82873;SDS011;72647;51.622;7.540;2024-01-25T09:30:48;35.92;;;6.00;;
82873;SDS011;72647;51.622;7.540;2024-01-25T09:32:48;25.77;;;6.63;;
82873;SDS011;72647;51.622;7.540;2024-01-25T09:34:49;25.03;;;5.77;;
82873;SDS011;72647;51.622;7.540;2024-01-25T09:36:49;31.60;;;6.30;;
82873;SDS011;72647;51.622;7.540;2024-01-25T09:38:49;26.27;;;5.60;;
82873;SDS011;72647;51.622;7.540;2024-01-25T09:40:49;24.00;;;5.17;;
82873;SDS011;72647;51.622;7.540;2024-01-25T09:42:49;25.33;;;5.80;;
82873;SDS011;72647;51.622;7.540;2024-01-25T09:44:52;29.70;;;6.88;;
82873;SDS011;72647;51.622;7.540;2024-01-25T09:46:54;20.35;;;5.45;;
82873;SDS011;72647;51.622;7.540;2024-01-25T09:48:54;26.70;;;5.95;;
82873;SDS011;72647;51.622;7.540;2024-01-25T09:50:55;22.87;;;5.47;;
82873;SDS011;72647;51.622;7.540;2024-01-25T09:52:55;19.40;;;4.95;;
82873;SDS011;72647;51.622;7.540;2024-01-25T09:54:57;27.00;;;5.13;;
82873;SDS011;72647;51.622;7.540;2024-01-25T09:56:57;25.52;;;5.70;;
82873;SDS011;72647;51.622;7.540;2024-01-25T09:59:01;28.08;;;6.97;;
82873;SDS011;72647;51.622;7.540;2024-01-25T10:01:02;21.02;;;4.97;;
82873;SDS011;72647;51.622;7.540;2024-01-25T10:03:02;26.50;;;5.13;;
82873;SDS011;72647;51.622;7.540;2024-01-25T10:05:02;29.08;;;5.20;;
82873;SDS011;72647;51.622;7.540;2024-01-25T10:07:03;26.85;;;6.85;;
82873;SDS011;72647;51.622;7.540;2024-01-25T10:09:04;27.50;;;6.55;;
82873;SDS011;72647;51.622;7.540;2024-01-25T10:11:05;26.95;;;5.20;;
82873;SDS011;72647;51.622;7.540;2024-01-25T10:13:05;26.48;;;5.47;;
82873;SDS011;72647;51.622;7.540;2024-01-25T10:15:06;25.53;;;5.83;;
82873;SDS011;72647;51.622;7.540;2024-01-25T10:17:06;21.92;;;6.05;;
82873;SDS011;72647;51.622;7.540;2024-01-25T10:19:06;25.40;;;5.13;;
82873;SDS011;72647;51.622;7.540;2024-01-25T10:21:10;30.75;;;5.95;;
82873;SDS011;72647;51.622;7.540;2024-01-25T10:23:10;26.77;;;6.93;;
82873;SDS011;72647;51.622;7.540;2024-01-25T10:25:13;26.57;;;6.33;;
82873;SDS011;72647;51.622;7.540;2024-01-25T10:27:16;22.05;;;5.35;;
82873;SDS011;72647;51.622;7.540;2024-01-25T10:29:17;25.50;;;5.88;;
82873;SDS011;72647;51.622;7.540;2024-01-25T10:31:17;26.37;;;6.20;;
82873;SDS011;72647;51.622;7.540;2024-01-25T10:33:17;22.33;;;5.73;;
82873;SDS011;72647;51.622;7.540;2024-01-25T10:35:18;23.77;;;6.18;;
82873;SDS011;72647;51.622;7.540;2024-01-25T10:37:18;28.67;;;5.75;;
82873;SDS011;72647;51.622;7.540;2024-01-25T10:39:19;26.13;;;6.00;;
82873;SDS011;72647;51.622;7.540;2024-01-25T10:41:20;24.42;;;5.55;;
82873;SDS011;72647;51.622;7.540;2024-01-25T10:43:22;29.27;;;7.20;;
82873;SDS011;72647;51.622;7.540;2024-01-25T10:45:22;27.90;;;6.47;;
82873;SDS011;72647;51.622;7.540;2024-01-25T10:47:23;25.30;;;5.70;;
82873;SDS011;72647;51.622;7.540;2024-01-25T10:49:23;23.20;;;6.03;;
82873;SDS011;72647;51.622;7.540;2024-01-25T10:51:24;23.02;;;6.47;;
82873;SDS011;72647;51.622;7.540;2024-01-25T10:53:25;24.63;;;6.65;;
82873;SDS011;72647;51.622;7.540;2024-01-25T10:55:26;31.45;;;7.57;;
82873;SDS011;72647;51.622;7.540;2024-01-25T10:57:33;24.00;;;6.18;;
82873;SDS011;72647;51.622;7.540;2024-01-25T10:59:34;20.33;;;5.65;;
82873;SDS011;72647;51.622;7.540;2024-01-25T11:01:34;26.30;;;6.50;;
82873;SDS011;72647;51.622;7.540;2024-01-25T11:03:35;26.80;;;6.32;;
82873;SDS011;72647;51.622;7.540;2024-01-25T11:05:35;19.38;;;5.90;;
82873;SDS011;72647;51.622;7.540;2024-01-25T11:07:42;22.63;;;5.27;;
82873;SDS011;72647;51.622;7.540;2024-01-25T11:09:43;28.02;;;6.70;;
82873;SDS011;72647;51.622;7.540;2024-01-25T11:11:48;24.27;;;6.68;;
82873;SDS011;72647;51.622;7.540;2024-01-25T11:13:49;29.33;;;7.63;;
82873;SDS011;72647;51.622;7.540;2024-01-25T11:15:49;29.15;;;8.00;;
82873;SDS011;72647;51.622;7.540;2024-01-25T11:17:50;27.07;;;6.90;;
82873;SDS011;72647;51.622;7.540;2024-01-25T11:19:50;32.20;;;7.05;;
82873;SDS011;72647;51.622;7.540;2024-01-25T11:21:52;29.90;;;6.60;;
82873;SDS011;72647;51.622;7.540;2024-01-25T11:24:02;23.98;;;7.05;;
82873;SDS011;72647;51.622;7.540;2024-01-25T11:26:02;25.30;;;6.90;;
82873;SDS011;72647;51.622;7.540;2024-01-25T11:28:03;25.97;;;6.40;;
82873;SDS011;72647;51.622;7.540;2024-01-25T11:30:05;31.00;;;6.55;;
82873;SDS011;72647;51.622;7.540;2024-01-25T11:32:08;23.17;;;6.43;;
82873;SDS011;72647;51.622;7.540;2024-01-25T11:34:10;26.70;;;5.85;;
82873;SDS011;72647;51.622;7.540;2024-01-25T11:36:10;25.73;;;6.20;;
82873;SDS011;72647;51.622;7.540;2024-01-25T11:38:10;28.67;;;6.57;;
82873;SDS011;72647;51.622;7.540;2024-01-25T11:40:11;29.27;;;7.13;;
82873;SDS011;72647;51.622;7.540;2024-01-25T11:42:12;26.30;;;7.78;;
82873;SDS011;72647;51.622;7.540;2024-01-25T11:44:12;28.57;;;7.50;;
82873;SDS011;72647;51.622;7.540;2024-01-25T11:46:16;23.23;;;6.97;;
82873;SDS011;72647;51.622;7.540;2024-01-25T11:48:18;31.70;;;7.25;;
82873;SDS011;72647;51.622;7.540;2024-01-25T11:50:18;26.13;;;7.03;;
82873;SDS011;72647;51.622;7.540;2024-01-25T11:52:19;29.60;;;7.18;;
82873;SDS011;72647;51.622;7.540;2024-01-25T11:54:19;21.63;;;7.22;;
82873;SDS011;72647;51.622;7.540;2024-01-25T11:56:20;24.02;;;7.40;;